sensor_id;sensor_type;location;lat;lon;timestamp;P1;durP1;ratioP1;P2;durP2;ratioP2
23129;SDS011;11734;51.046;13.778;2022-09-12T00:01:12;13.10;;;10.07;;
23129;SDS011;11734;51.046;13.778;2022-09-12T00:03:42;14.70;;;10.33;;
23129;SDS011;11734;51.046;13.778;2022-09-12T00:06:15;14.53;;;10.13;;
23129;SDS011;11734;51.046;13.778;2022-09-12T00:08:48;15.80;;;11.10;;
23129;SDS011;11734;51.046;13.778;2022-09-12T00:11:17;12.87;;;10.43;;
23129;SDS011;11734;51.046;13.778;2022-09-12T00:13:44;14.67;;;11.00;;
23129;SDS011;11734;51.046;13.778;2022-09-12T00:16:13;15.50;;;11.60;;
23129;SDS011;11734;51.046;13.778;2022-09-12T00:18:51;14.83;;;10.90;;
23129;SDS011;11734;51.046;13.778;2022-09-12T00:21:20;14.23;;;10.53;;
23129;SDS011;11734;51.046;13.778;2022-09-12T00:23:48;13.53;;;11.37;;
23129;SDS011;11734;51.046;13.778;2022-09-12T00:26:17;14.40;;;10.67;;
23129;SDS011;11734;51.046;13.778;2022-09-12T00:28:45;14.27;;;11.50;;
23129;SDS011;11734;51.046;13.778;2022-09-12T00:31:14;14.93;;;10.80;;
23129;SDS011;11734;51.046;13.778;2022-09-12T00:33:43;17.17;;;12.03;;
23129;SDS011;11734;51.046;13.778;2022-09-12T00:36:12;15.33;;;11.47;;
23129;SDS011;11734;51.046;13.778;2022-09-12T00:38:42;15.63;;;11.53;;
23129;SDS011;11734;51.046;13.778;2022-09-12T00:41:18;16.53;;;11.47;;
23129;SDS011;11734;51.046;13.778;2022-09-12T00:43:55;15.20;;;11.93;;
23129;SDS011;11734;51.046;13.778;2022-09-12T00:46:27;15.93;;;11.50;;
23129;SDS011;11734;51.046;13.778;2022-09-12T00:51:42;17.10;;;12.03;;
23129;SDS011;11734;51.046;13.778;2022-09-12T00:54:16;14.90;;;11.53;;
23129;SDS011;11734;51.046;13.778;2022-09-12T00:56:49;18.40;;;12.73;;
23129;SDS011;11734;51.046;13.778;2022-09-12T00:59:21;16.83;;;12.03;;
23129;SDS011;11734;51.046;13.778;2022-09-12T01:01:57;14.53;;;11.87;;
23129;SDS011;11734;51.046;13.778;2022-09-12T01:04:25;16.20;;;11.30;;
23129;SDS011;11734;51.046;13.778;2022-09-12T01:06:54;16.10;;;11.70;;
23129;SDS011;11734;51.046;13.778;2022-09-12T01:09:24;15.37;;;11.83;;
23129;SDS011;11734;51.046;13.778;2022-09-12T01:11:51;14.83;;;11.50;;
23129;SDS011;11734;51.046;13.778;2022-09-12T01:14:20;16.30;;;11.80;;
23129;SDS011;11734;51.046;13.778;2022-09-12T01:16:48;16.13;;;11.70;;
23129;SDS011;11734;51.046;13.778;2022-09-12T01:35:10;14.50;;;11.37;;
23129;SDS011;11734;51.046;13.778;2022-09-12T01:46:20;17.57;;;12.73;;
23129;SDS011;11734;51.046;13.778;2022-09-12T01:48:58;17.73;;;12.63;;
23129;SDS011;11734;51.046;13.778;2022-09-12T01:51:38;15.87;;;12.20;;
23129;SDS011;11734;51.046;13.778;2022-09-12T01:54:36;19.43;;;12.60;;
23129;SDS011;11734;51.046;13.778;2022-09-12T01:57:17;19.53;;;12.17;;
23129;SDS011;11734;51.046;13.778;2022-09-12T01:59:51;15.97;;;11.80;;
23129;SDS011;11734;51.046;13.778;2022-09-12T02:02:26;17.40;;;12.60;;
23129;SDS011;11734;51.046;13.778;2022-09-12T02:05:10;16.63;;;12.43;;
23129;SDS011;11734;51.046;13.778;2022-09-12T02:07:54;15.40;;;11.87;;
23129;SDS011;11734;51.046;13.778;2022-09-12T02:10:29;17.40;;;12.53;;
23129;SDS011;11734;51.046;13.778;2022-09-12T02:13:10;17.63;;;12.60;;
23129;SDS011;11734;51.046;13.778;2022-09-12T02:15:48;17.30;;;11.73;;
23129;SDS011;11734;51.046;13.778;2022-09-12T02:18:21;19.27;;;12.47;;
23129;SDS011;11734;51.046;13.778;2022-09-12T02:20:56;20.00;;;13.73;;
23129;SDS011;11734;51.046;13.778;2022-09-12T02:23:25;18.23;;;12.80;;
23129;SDS011;11734;51.046;13.778;2022-09-12T02:25:56;18.27;;;12.80;;
23129;SDS011;11734;51.046;13.778;2022-09-12T02:28:33;16.47;;;12.47;;
23129;SDS011;11734;51.046;13.778;2022-09-12T02:34:05;18.07;;;12.40;;
23129;SDS011;11734;51.046;13.778;2022-09-12T02:37:03;17.07;;;12.00;;
23129;SDS011;11734;51.046;13.778;2022-09-12T02:39:43;16.57;;;12.27;;
23129;SDS011;11734;51.046;13.778;2022-09-12T02:42:11;17.97;;;13.00;;
23129;SDS011;11734;51.046;13.778;2022-09-12T02:44:39;16.50;;;12.13;;
23129;SDS011;11734;51.046;13.778;2022-09-12T02:47:09;19.00;;;12.70;;
23129;SDS011;11734;51.046;13.778;2022-09-12T02:49:43;18.80;;;12.67;;
23129;SDS011;11734;51.046;13.778;2022-09-12T02:52:11;19.13;;;13.23;;
23129;SDS011;11734;51.046;13.778;2022-09-12T02:54:39;19.80;;;14.13;;
23129;SDS011;11734;51.046;13.778;2022-09-12T02:57:19;19.50;;;12.90;;
23129;SDS011;11734;51.046;13.778;2022-09-12T02:59:49;19.00;;;12.63;;
23129;SDS011;11734;51.046;13.778;2022-09-12T03:02:27;16.83;;;12.73;;
23129;SDS011;11734;51.046;13.778;2022-09-12T03:11:27;20.17;;;14.77;;
23129;SDS011;11734;51.046;13.778;2022-09-12T03:17:15;21.50;;;14.60;;
23129;SDS011;11734;51.046;13.778;2022-09-12T03:19:53;18.47;;;12.60;;
23129;SDS011;11734;51.046;13.778;2022-09-12T03:24:57;18.00;;;13.27;;
23129;SDS011;11734;51.046;13.778;2022-09-12T03:27:57;18.57;;;13.10;;
23129;SDS011;11734;51.046;13.778;2022-09-12T03:30:36;23.27;;;14.23;;
23129;SDS011;11734;51.046;13.778;2022-09-12T03:33:16;22.73;;;14.60;;
23129;SDS011;11734;51.046;13.778;2022-09-12T03:35:45;18.30;;;13.83;;
23129;SDS011;11734;51.046;13.778;2022-09-12T03:38:14;19.53;;;13.67;;
23129;SDS011;11734;51.046;13.778;2022-09-12T03:40:43;18.63;;;13.37;;
23129;SDS011;11734;51.046;13.778;2022-09-12T03:43:14;20.43;;;13.67;;
23129;SDS011;11734;51.046;13.778;2022-09-12T03:45:41;18.33;;;13.23;;
23129;SDS011;11734;51.046;13.778;2022-09-12T03:48:09;20.03;;;13.33;;
23129;SDS011;11734;51.046;13.778;2022-09-12T03:50:37;20.07;;;13.50;;
23129;SDS011;11734;51.046;13.778;2022-09-12T03:53:04;20.67;;;13.63;;
23129;SDS011;11734;51.046;13.778;2022-09-12T03:55:31;20.57;;;13.30;;
23129;SDS011;11734;51.046;13.778;2022-09-12T03:57:59;19.40;;;14.17;;
23129;SDS011;11734;51.046;13.778;2022-09-12T04:00:26;19.17;;;13.33;;
23129;SDS011;11734;51.046;13.778;2022-09-12T04:02:55;19.03;;;12.60;;
23129;SDS011;11734;51.046;13.778;2022-09-12T04:05:23;20.30;;;13.93;;
23129;SDS011;11734;51.046;13.778;2022-09-12T04:07:51;18.83;;;13.33;;
23129;SDS011;11734;51.046;13.778;2022-09-12T04:10:18;19.90;;;13.10;;
23129;SDS011;11734;51.046;13.778;2022-09-12T04:12:46;18.37;;;13.03;;
23129;SDS011;11734;51.046;13.778;2022-09-12T04:15:13;20.40;;;13.77;;
23129;SDS011;11734;51.046;13.778;2022-09-12T04:17:41;17.63;;;12.53;;
23129;SDS011;11734;51.046;13.778;2022-09-12T04:20:08;20.97;;;13.73;;
23129;SDS011;11734;51.046;13.778;2022-09-12T04:22:36;20.13;;;13.77;;
23129;SDS011;11734;51.046;13.778;2022-09-12T04:25:04;25.10;;;19.00;;
23129;SDS011;11734;51.046;13.778;2022-09-12T04:27:32;21.30;;;14.67;;
23129;SDS011;11734;51.046;13.778;2022-09-12T04:30:00;20.03;;;13.57;;
23129;SDS011;11734;51.046;13.778;2022-09-12T04:32:28;18.73;;;13.10;;
23129;SDS011;11734;51.046;13.778;2022-09-12T04:34:58;21.70;;;12.77;;
23129;SDS011;11734;51.046;13.778;2022-09-12T04:37:25;16.53;;;12.20;;
23129;SDS011;11734;51.046;13.778;2022-09-12T04:39:53;20.40;;;12.67;;
23129;SDS011;11734;51.046;13.778;2022-09-12T04:42:23;18.30;;;13.33;;
23129;SDS011;11734;51.046;13.778;2022-09-12T04:44:50;19.07;;;12.10;;
23129;SDS011;11734;51.046;13.778;2022-09-12T04:47:18;18.50;;;13.63;;
23129;SDS011;11734;51.046;13.778;2022-09-12T04:49:47;19.33;;;13.10;;
23129;SDS011;11734;51.046;13.778;2022-09-12T04:52:16;19.23;;;13.80;;
23129;SDS011;11734;51.046;13.778;2022-09-12T04:54:43;19.47;;;13.50;;
23129;SDS011;11734;51.046;13.778;2022-09-12T04:57:10;19.60;;;13.70;;
23129;SDS011;11734;51.046;13.778;2022-09-12T04:59:38;20.43;;;13.63;;
23129;SDS011;11734;51.046;13.778;2022-09-12T05:02:06;19.70;;;14.10;;
23129;SDS011;11734;51.046;13.778;2022-09-12T05:04:33;48.67;;;34.77;;
23129;SDS011;11734;51.046;13.778;2022-09-12T05:07:01;20.63;;;14.63;;
23129;SDS011;11734;51.046;13.778;2022-09-12T05:09:28;18.53;;;14.00;;
23129;SDS011;11734;51.046;13.778;2022-09-12T05:11:56;18.67;;;14.10;;
23129;SDS011;11734;51.046;13.778;2022-09-12T05:14:30;19.27;;;13.80;;
23129;SDS011;11734;51.046;13.778;2022-09-12T05:16:58;20.47;;;14.53;;
23129;SDS011;11734;51.046;13.778;2022-09-12T05:19:27;21.40;;;14.03;;
23129;SDS011;11734;51.046;13.778;2022-09-12T05:21:56;20.40;;;13.57;;
23129;SDS011;11734;51.046;13.778;2022-09-12T05:24:24;19.10;;;13.40;;
23129;SDS011;11734;51.046;13.778;2022-09-12T05:26:52;18.37;;;12.50;;
23129;SDS011;11734;51.046;13.778;2022-09-12T05:29:19;19.03;;;14.07;;
23129;SDS011;11734;51.046;13.778;2022-09-12T05:31:47;21.87;;;14.57;;
23129;SDS011;11734;51.046;13.778;2022-09-12T05:34:17;20.00;;;13.70;;
23129;SDS011;11734;51.046;13.778;2022-09-12T05:36:45;20.90;;;13.43;;
23129;SDS011;11734;51.046;13.778;2022-09-12T05:39:12;19.57;;;13.90;;
23129;SDS011;11734;51.046;13.778;2022-09-12T05:41:40;19.53;;;13.00;;
23129;SDS011;11734;51.046;13.778;2022-09-12T05:44:10;20.10;;;13.33;;
23129;SDS011;11734;51.046;13.778;2022-09-12T05:46:40;18.27;;;13.03;;
23129;SDS011;11734;51.046;13.778;2022-09-12T05:49:10;19.73;;;13.33;;
23129;SDS011;11734;51.046;13.778;2022-09-12T05:51:40;18.90;;;13.23;;
23129;SDS011;11734;51.046;13.778;2022-09-12T05:54:11;19.73;;;13.90;;
23129;SDS011;11734;51.046;13.778;2022-09-12T05:56:41;17.57;;;12.97;;
23129;SDS011;11734;51.046;13.778;2022-09-12T05:59:11;17.70;;;13.17;;
23129;SDS011;11734;51.046;13.778;2022-09-12T06:01:46;18.83;;;13.53;;
23129;SDS011;11734;51.046;13.778;2022-09-12T06:04:14;20.60;;;13.43;;
23129;SDS011;11734;51.046;13.778;2022-09-12T06:06:42;18.37;;;13.23;;
23129;SDS011;11734;51.046;13.778;2022-09-12T06:09:12;20.33;;;13.73;;
23129;SDS011;11734;51.046;13.778;2022-09-12T06:11:41;17.23;;;13.40;;
23129;SDS011;11734;51.046;13.778;2022-09-12T06:14:09;20.70;;;14.00;;
23129;SDS011;11734;51.046;13.778;2022-09-12T06:16:38;19.20;;;13.57;;
23129;SDS011;11734;51.046;13.778;2022-09-12T06:19:10;19.33;;;13.73;;
23129;SDS011;11734;51.046;13.778;2022-09-12T06:21:40;19.20;;;13.00;;
23129;SDS011;11734;51.046;13.778;2022-09-12T06:24:08;22.37;;;13.37;;
23129;SDS011;11734;51.046;13.778;2022-09-12T06:26:36;18.97;;;13.53;;
23129;SDS011;11734;51.046;13.778;2022-09-12T06:29:03;20.30;;;13.50;;
23129;SDS011;11734;51.046;13.778;2022-09-12T06:31:34;18.73;;;13.50;;
23129;SDS011;11734;51.046;13.778;2022-09-12T06:34:06;20.13;;;13.93;;
23129;SDS011;11734;51.046;13.778;2022-09-12T06:36:42;20.87;;;13.87;;
23129;SDS011;11734;51.046;13.778;2022-09-12T06:39:12;18.80;;;13.37;;
23129;SDS011;11734;51.046;13.778;2022-09-12T06:41:47;17.67;;;13.33;;
23129;SDS011;11734;51.046;13.778;2022-09-12T06:44:19;16.33;;;12.00;;
23129;SDS011;11734;51.046;13.778;2022-09-12T06:46:47;19.43;;;12.93;;
23129;SDS011;11734;51.046;13.778;2022-09-12T06:49:15;19.70;;;13.37;;
23129;SDS011;11734;51.046;13.778;2022-09-12T06:51:43;19.37;;;13.67;;
23129;SDS011;11734;51.046;13.778;2022-09-12T06:54:11;18.50;;;13.33;;
23129;SDS011;11734;51.046;13.778;2022-09-12T06:56:40;19.67;;;13.27;;
23129;SDS011;11734;51.046;13.778;2022-09-12T06:59:09;19.27;;;13.70;;
23129;SDS011;11734;51.046;13.778;2022-09-12T07:01:36;17.30;;;12.40;;
23129;SDS011;11734;51.046;13.778;2022-09-12T07:04:05;19.40;;;12.90;;
23129;SDS011;11734;51.046;13.778;2022-09-12T07:06:37;18.00;;;13.23;;
23129;SDS011;11734;51.046;13.778;2022-09-12T07:09:07;19.40;;;12.97;;
23129;SDS011;11734;51.046;13.778;2022-09-12T07:11:37;16.20;;;12.47;;
23129;SDS011;11734;51.046;13.778;2022-09-12T07:14:06;17.03;;;12.07;;
23129;SDS011;11734;51.046;13.778;2022-09-12T07:16:35;18.20;;;12.53;;
23129;SDS011;11734;51.046;13.778;2022-09-12T07:19:04;16.77;;;12.47;;
23129;SDS011;11734;51.046;13.778;2022-09-12T07:21:33;17.23;;;12.77;;
23129;SDS011;11734;51.046;13.778;2022-09-12T07:24:08;17.10;;;12.03;;
23129;SDS011;11734;51.046;13.778;2022-09-12T07:26:36;17.97;;;13.00;;
23129;SDS011;11734;51.046;13.778;2022-09-12T07:29:05;16.80;;;12.33;;
23129;SDS011;11734;51.046;13.778;2022-09-12T07:31:55;16.93;;;12.00;;
23129;SDS011;11734;51.046;13.778;2022-09-12T07:34:23;17.43;;;12.70;;
23129;SDS011;11734;51.046;13.778;2022-09-12T07:36:50;17.77;;;12.13;;
23129;SDS011;11734;51.046;13.778;2022-09-12T07:39:17;14.97;;;11.73;;
23129;SDS011;11734;51.046;13.778;2022-09-12T07:41:45;15.03;;;11.50;;
23129;SDS011;11734;51.046;13.778;2022-09-12T07:44:12;14.50;;;10.93;;
23129;SDS011;11734;51.046;13.778;2022-09-12T07:46:40;14.00;;;10.60;;
23129;SDS011;11734;51.046;13.778;2022-09-12T07:49:07;15.50;;;10.73;;
23129;SDS011;11734;51.046;13.778;2022-09-12T07:51:37;12.60;;;10.40;;
23129;SDS011;11734;51.046;13.778;2022-09-12T07:58:18;13.30;;;10.53;;
23129;SDS011;11734;51.046;13.778;2022-09-12T08:00:45;13.13;;;10.07;;
23129;SDS011;11734;51.046;13.778;2022-09-12T08:03:12;12.60;;;9.83;;
23129;SDS011;11734;51.046;13.778;2022-09-12T08:05:40;12.23;;;9.27;;
23129;SDS011;11734;51.046;13.778;2022-09-12T08:08:07;12.33;;;9.47;;
23129;SDS011;11734;51.046;13.778;2022-09-12T08:10:35;11.70;;;9.53;;
23129;SDS011;11734;51.046;13.778;2022-09-12T08:13:02;10.27;;;8.77;;
23129;SDS011;11734;51.046;13.778;2022-09-12T08:15:29;10.70;;;9.07;;
23129;SDS011;11734;51.046;13.778;2022-09-12T08:17:57;10.87;;;8.93;;
23129;SDS011;11734;51.046;13.778;2022-09-12T08:20:24;9.87;;;8.63;;
23129;SDS011;11734;51.046;13.778;2022-09-12T08:22:53;10.97;;;8.73;;
23129;SDS011;11734;51.046;13.778;2022-09-12T08:25:21;10.30;;;8.80;;
23129;SDS011;11734;51.046;13.778;2022-09-12T08:27:49;9.57;;;8.57;;
23129;SDS011;11734;51.046;13.778;2022-09-12T08:30:17;10.17;;;8.53;;
23129;SDS011;11734;51.046;13.778;2022-09-12T08:32:44;10.87;;;9.47;;
23129;SDS011;11734;51.046;13.778;2022-09-12T08:35:12;11.37;;;9.00;;
23129;SDS011;11734;51.046;13.778;2022-09-12T08:37:42;9.30;;;7.63;;
23129;SDS011;11734;51.046;13.778;2022-09-12T08:40:13;9.70;;;7.77;;
23129;SDS011;11734;51.046;13.778;2022-09-12T08:45:22;8.83;;;6.73;;
23129;SDS011;11734;51.046;13.778;2022-09-12T08:47:56;9.37;;;7.63;;
23129;SDS011;11734;51.046;13.778;2022-09-12T08:50:26;7.53;;;6.80;;
23129;SDS011;11734;51.046;13.778;2022-09-12T08:52:55;8.10;;;6.23;;
23129;SDS011;11734;51.046;13.778;2022-09-12T08:55:49;7.53;;;6.37;;
23129;SDS011;11734;51.046;13.778;2022-09-12T08:58:22;8.13;;;6.63;;
23129;SDS011;11734;51.046;13.778;2022-09-12T09:09:37;6.30;;;5.70;;
23129;SDS011;11734;51.046;13.778;2022-09-12T09:17:41;5.93;;;5.20;;
23129;SDS011;11734;51.046;13.778;2022-09-12T09:25:58;5.53;;;5.03;;
23129;SDS011;11734;51.046;13.778;2022-09-12T09:28:49;5.30;;;4.80;;
23129;SDS011;11734;51.046;13.778;2022-09-12T09:31:24;4.97;;;4.47;;
23129;SDS011;11734;51.046;13.778;2022-09-12T09:33:56;5.47;;;4.97;;
23129;SDS011;11734;51.046;13.778;2022-09-12T09:42:34;3.73;;;3.30;;
23129;SDS011;11734;51.046;13.778;2022-09-12T09:45:16;4.03;;;3.73;;
23129;SDS011;11734;51.046;13.778;2022-09-12T09:47:50;4.43;;;3.80;;
23129;SDS011;11734;51.046;13.778;2022-09-12T09:50:23;4.30;;;3.90;;
23129;SDS011;11734;51.046;13.778;2022-09-12T09:52:50;4.93;;;4.40;;
23129;SDS011;11734;51.046;13.778;2022-09-12T09:55:22;4.93;;;4.10;;
23129;SDS011;11734;51.046;13.778;2022-09-12T09:57:53;4.93;;;4.13;;
23129;SDS011;11734;51.046;13.778;2022-09-12T10:05:43;3.70;;;3.40;;
23129;SDS011;11734;51.046;13.778;2022-09-12T10:08:19;3.60;;;3.30;;
23129;SDS011;11734;51.046;13.778;2022-09-12T10:10:53;3.40;;;3.10;;
23129;SDS011;11734;51.046;13.778;2022-09-12T10:13:38;3.50;;;3.20;;
23129;SDS011;11734;51.046;13.778;2022-09-12T10:16:26;2.80;;;2.60;;
23129;SDS011;11734;51.046;13.778;2022-09-12T10:18:59;2.87;;;2.67;;
23129;SDS011;11734;51.046;13.778;2022-09-12T10:21:32;2.97;;;2.70;;
23129;SDS011;11734;51.046;13.778;2022-09-12T10:24:33;3.30;;;3.00;;
23129;SDS011;11734;51.046;13.778;2022-09-12T10:32:58;2.43;;;2.23;;
23129;SDS011;11734;51.046;13.778;2022-09-12T10:35:16;2.90;;;2.70;;
23129;SDS011;11734;51.046;13.778;2022-09-12T10:38:03;3.40;;;3.10;;
23129;SDS011;11734;51.046;13.778;2022-09-12T10:40:34;2.60;;;2.40;;
23129;SDS011;11734;51.046;13.778;2022-09-12T10:43:15;4.13;;;2.63;;
23129;SDS011;11734;51.046;13.778;2022-09-12T10:45:48;3.00;;;2.70;;
23129;SDS011;11734;51.046;13.778;2022-09-12T10:48:29;2.87;;;2.67;;
23129;SDS011;11734;51.046;13.778;2022-09-12T10:50:58;2.60;;;2.40;;
23129;SDS011;11734;51.046;13.778;2022-09-12T10:53:27;3.43;;;3.13;;
23129;SDS011;11734;51.046;13.778;2022-09-12T10:56:13;3.30;;;3.10;;
23129;SDS011;11734;51.046;13.778;2022-09-12T11:13:23;2.80;;;2.23;;
23129;SDS011;11734;51.046;13.778;2022-09-12T11:21:23;1.90;;;1.80;;
23129;SDS011;11734;51.046;13.778;2022-09-12T11:35:10;2.50;;;2.03;;
23129;SDS011;11734;51.046;13.778;2022-09-12T11:45:56;1.83;;;1.73;;
23129;SDS011;11734;51.046;13.778;2022-09-12T11:48:37;1.50;;;1.40;;
23129;SDS011;11734;51.046;13.778;2022-09-12T11:51:06;1.40;;;1.30;;
23129;SDS011;11734;51.046;13.778;2022-09-12T11:53:46;1.40;;;1.30;;
23129;SDS011;11734;51.046;13.778;2022-09-12T11:56:25;1.80;;;1.70;;
23129;SDS011;11734;51.046;13.778;2022-09-12T11:58:54;1.80;;;1.70;;
23129;SDS011;11734;51.046;13.778;2022-09-12T12:01:31;1.50;;;1.40;;
23129;SDS011;11734;51.046;13.778;2022-09-12T12:04:13;1.57;;;1.47;;
23129;SDS011;11734;51.046;13.778;2022-09-12T12:06:55;1.60;;;1.50;;
23129;SDS011;11734;51.046;13.778;2022-09-12T12:09:30;1.73;;;1.63;;
23129;SDS011;11734;51.046;13.778;2022-09-12T12:11:59;1.80;;;1.70;;
23129;SDS011;11734;51.046;13.778;2022-09-12T12:14:42;1.80;;;1.70;;
23129;SDS011;11734;51.046;13.778;2022-09-12T12:17:17;1.83;;;1.73;;
23129;SDS011;11734;51.046;13.778;2022-09-12T12:19:46;1.90;;;1.80;;
23129;SDS011;11734;51.046;13.778;2022-09-12T12:22:33;1.93;;;1.83;;
23129;SDS011;11734;51.046;13.778;2022-09-12T12:25:06;5.07;;;1.80;;
23129;SDS011;11734;51.046;13.778;2022-09-12T12:31:11;1.80;;;1.70;;
23129;SDS011;11734;51.046;13.778;2022-09-12T12:38:28;1.80;;;1.70;;
23129;SDS011;11734;51.046;13.778;2022-09-12T12:43:46;1.80;;;1.63;;
23129;SDS011;11734;51.046;13.778;2022-09-12T12:46:15;1.80;;;1.70;;
23129;SDS011;11734;51.046;13.778;2022-09-12T12:51:54;1.70;;;1.60;;
23129;SDS011;11734;51.046;13.778;2022-09-12T12:54:46;4.27;;;3.87;;
23129;SDS011;11734;51.046;13.778;2022-09-12T12:59:46;1.80;;;1.70;;
23129;SDS011;11734;51.046;13.778;2022-09-12T13:05:19;1.60;;;1.50;;
23129;SDS011;11734;51.046;13.778;2022-09-12T13:08:04;1.70;;;1.60;;
23129;SDS011;11734;51.046;13.778;2022-09-12T13:10:36;2.47;;;1.60;;
23129;SDS011;11734;51.046;13.778;2022-09-12T13:13:05;1.67;;;1.57;;
23129;SDS011;11734;51.046;13.778;2022-09-12T13:18:02;1.70;;;1.50;;
23129;SDS011;11734;51.046;13.778;2022-09-12T13:23:57;1.80;;;1.70;;
23129;SDS011;11734;51.046;13.778;2022-09-12T13:26:31;1.60;;;1.50;;
23129;SDS011;11734;51.046;13.778;2022-09-12T13:29:18;1.70;;;1.60;;
23129;SDS011;11734;51.046;13.778;2022-09-12T13:31:47;2.17;;;1.80;;
23129;SDS011;11734;51.046;13.778;2022-09-12T13:34:33;1.60;;;1.50;;
23129;SDS011;11734;51.046;13.778;2022-09-12T13:42:53;1.57;;;1.47;;
23129;SDS011;11734;51.046;13.778;2022-09-12T13:45:41;1.80;;;1.70;;
23129;SDS011;11734;51.046;13.778;2022-09-12T13:48:13;2.67;;;1.60;;
23129;SDS011;11734;51.046;13.778;2022-09-12T13:50:56;1.97;;;1.60;;
23129;SDS011;11734;51.046;13.778;2022-09-12T13:53:28;1.67;;;1.50;;
23129;SDS011;11734;51.046;13.778;2022-09-12T13:56:14;1.87;;;1.70;;
23129;SDS011;11734;51.046;13.778;2022-09-12T13:58:51;1.43;;;1.33;;
23129;SDS011;11734;51.046;13.778;2022-09-12T14:01:37;3.80;;;2.30;;
23129;SDS011;11734;51.046;13.778;2022-09-12T14:04:24;1.60;;;1.50;;
23129;SDS011;11734;51.046;13.778;2022-09-12T14:09:52;1.63;;;1.53;;
23129;SDS011;11734;51.046;13.778;2022-09-12T14:12:25;1.40;;;1.30;;
23129;SDS011;11734;51.046;13.778;2022-09-12T14:14:55;1.93;;;1.40;;
23129;SDS011;11734;51.046;13.778;2022-09-12T14:17:26;1.50;;;1.40;;
23129;SDS011;11734;51.046;13.778;2022-09-12T14:20:00;1.60;;;1.50;;
23129;SDS011;11734;51.046;13.778;2022-09-12T14:22:32;1.63;;;1.53;;
23129;SDS011;11734;51.046;13.778;2022-09-12T14:25:02;1.60;;;1.50;;
23129;SDS011;11734;51.046;13.778;2022-09-12T14:27:34;1.67;;;1.57;;
23129;SDS011;11734;51.046;13.778;2022-09-12T14:30:27;2.23;;;1.60;;
23129;SDS011;11734;51.046;13.778;2022-09-12T14:33:45;1.70;;;1.60;;
23129;SDS011;11734;51.046;13.778;2022-09-12T14:35:48;1.40;;;1.30;;
23129;SDS011;11734;51.046;13.778;2022-09-12T14:38:22;2.30;;;1.73;;
23129;SDS011;11734;51.046;13.778;2022-09-12T14:40:58;1.60;;;1.50;;
23129;SDS011;11734;51.046;13.778;2022-09-12T14:43:41;1.57;;;1.47;;
23129;SDS011;11734;51.046;13.778;2022-09-12T14:48:50;1.63;;;1.50;;
23129;SDS011;11734;51.046;13.778;2022-09-12T14:51:24;1.80;;;1.70;;
23129;SDS011;11734;51.046;13.778;2022-09-12T14:53:56;1.60;;;1.50;;
23129;SDS011;11734;51.046;13.778;2022-09-12T14:56:38;1.70;;;1.60;;
23129;SDS011;11734;51.046;13.778;2022-09-12T14:59:25;1.60;;;1.50;;
23129;SDS011;11734;51.046;13.778;2022-09-12T15:04:51;1.30;;;1.20;;
23129;SDS011;11734;51.046;13.778;2022-09-12T15:09:59;1.50;;;1.40;;
23129;SDS011;11734;51.046;13.778;2022-09-12T15:12:43;1.13;;;1.13;;
23129;SDS011;11734;51.046;13.778;2022-09-12T15:15:14;1.40;;;1.30;;
23129;SDS011;11734;51.046;13.778;2022-09-12T15:17:45;3.67;;;2.87;;
23129;SDS011;11734;51.046;13.778;2022-09-12T15:20:13;2.30;;;2.10;;
23129;SDS011;11734;51.046;13.778;2022-09-12T15:22:40;1.60;;;1.50;;
23129;SDS011;11734;51.046;13.778;2022-09-12T15:25:08;1.57;;;1.47;;
23129;SDS011;11734;51.046;13.778;2022-09-12T15:27:38;1.63;;;1.40;;
23129;SDS011;11734;51.046;13.778;2022-09-12T15:30:08;1.83;;;1.40;;
23129;SDS011;11734;51.046;13.778;2022-09-12T15:32:38;2.33;;;2.10;;
23129;SDS011;11734;51.046;13.778;2022-09-12T15:35:19;1.40;;;1.30;;
23129;SDS011;11734;51.046;13.778;2022-09-12T15:37:48;1.40;;;1.30;;
23129;SDS011;11734;51.046;13.778;2022-09-12T15:40:16;1.80;;;1.40;;
23129;SDS011;11734;51.046;13.778;2022-09-12T15:42:44;1.50;;;1.40;;
23129;SDS011;11734;51.046;13.778;2022-09-12T15:45:14;1.50;;;1.40;;
23129;SDS011;11734;51.046;13.778;2022-09-12T15:47:45;1.70;;;1.60;;
23129;SDS011;11734;51.046;13.778;2022-09-12T15:50:12;2.07;;;1.50;;
23129;SDS011;11734;51.046;13.778;2022-09-12T15:52:40;1.73;;;1.50;;
23129;SDS011;11734;51.046;13.778;2022-09-12T15:55:11;1.63;;;1.40;;
23129;SDS011;11734;51.046;13.778;2022-09-12T15:57:53;1.73;;;1.50;;
23129;SDS011;11734;51.046;13.778;2022-09-12T16:00:20;1.60;;;1.50;;
23129;SDS011;11734;51.046;13.778;2022-09-12T16:02:49;4.20;;;3.00;;
23129;SDS011;11734;51.046;13.778;2022-09-12T16:05:20;1.93;;;1.83;;
23129;SDS011;11734;51.046;13.778;2022-09-12T16:07:52;1.60;;;1.50;;
23129;SDS011;11734;51.046;13.778;2022-09-12T16:10:21;1.67;;;1.57;;
23129;SDS011;11734;51.046;13.778;2022-09-12T16:12:51;1.70;;;1.60;;
23129;SDS011;11734;51.046;13.778;2022-09-12T16:15:19;1.67;;;1.57;;
23129;SDS011;11734;51.046;13.778;2022-09-12T16:17:49;1.60;;;1.50;;
23129;SDS011;11734;51.046;13.778;2022-09-12T16:20:17;1.77;;;1.67;;
23129;SDS011;11734;51.046;13.778;2022-09-12T16:22:46;1.67;;;1.57;;
23129;SDS011;11734;51.046;13.778;2022-09-12T16:25:13;1.80;;;1.70;;
23129;SDS011;11734;51.046;13.778;2022-09-12T16:27:41;1.70;;;1.60;;
23129;SDS011;11734;51.046;13.778;2022-09-12T16:30:09;1.80;;;1.70;;
23129;SDS011;11734;51.046;13.778;2022-09-12T16:32:38;1.73;;;1.63;;
23129;SDS011;11734;51.046;13.778;2022-09-12T16:35:06;1.80;;;1.70;;
23129;SDS011;11734;51.046;13.778;2022-09-12T16:37:34;1.80;;;1.70;;
23129;SDS011;11734;51.046;13.778;2022-09-12T16:40:02;1.97;;;1.60;;
23129;SDS011;11734;51.046;13.778;2022-09-12T16:42:32;2.10;;;1.87;;
23129;SDS011;11734;51.046;13.778;2022-09-12T16:45:00;1.87;;;1.77;;
23129;SDS011;11734;51.046;13.778;2022-09-12T16:47:28;2.37;;;2.17;;
23129;SDS011;11734;51.046;13.778;2022-09-12T16:49:57;1.70;;;1.60;;
23129;SDS011;11734;51.046;13.778;2022-09-12T16:52:24;2.20;;;2.00;;
23129;SDS011;11734;51.046;13.778;2022-09-12T16:54:53;2.30;;;2.10;;
23129;SDS011;11734;51.046;13.778;2022-09-12T16:57:21;1.90;;;1.80;;
23129;SDS011;11734;51.046;13.778;2022-09-12T16:59:49;1.93;;;1.77;;
23129;SDS011;11734;51.046;13.778;2022-09-12T17:02:17;2.53;;;2.33;;
23129;SDS011;11734;51.046;13.778;2022-09-12T17:04:45;2.47;;;2.27;;
23129;SDS011;11734;51.046;13.778;2022-09-12T17:07:12;2.37;;;2.17;;
23129;SDS011;11734;51.046;13.778;2022-09-12T17:09:39;3.57;;;2.17;;
23129;SDS011;11734;51.046;13.778;2022-09-12T17:12:12;2.50;;;2.23;;
23129;SDS011;11734;51.046;13.778;2022-09-12T17:14:40;2.43;;;2.23;;
23129;SDS011;11734;51.046;13.778;2022-09-12T17:17:07;1.90;;;1.80;;
23129;SDS011;11734;51.046;13.778;2022-09-12T17:19:35;2.20;;;2.00;;
23129;SDS011;11734;51.046;13.778;2022-09-12T17:22:03;2.33;;;2.13;;
23129;SDS011;11734;51.046;13.778;2022-09-12T17:24:30;2.20;;;2.00;;
23129;SDS011;11734;51.046;13.778;2022-09-12T17:26:58;2.30;;;2.10;;
23129;SDS011;11734;51.046;13.778;2022-09-12T17:29:25;2.20;;;1.83;;
23129;SDS011;11734;51.046;13.778;2022-09-12T17:31:53;2.53;;;2.23;;
23129;SDS011;11734;51.046;13.778;2022-09-12T17:34:21;2.27;;;2.07;;
23129;SDS011;11734;51.046;13.778;2022-09-12T17:36:48;2.40;;;2.20;;